sensor_id;sensor_type;location;lat;lon;timestamp;P1;durP1;ratioP1;P2;durP2;ratioP2
12271;SDS011;6198;51.446;6.698;2022-09-09T00:02:26;1.87;;;1.43;;
12271;SDS011;6198;51.446;6.698;2022-09-09T00:05:08;3.70;;;2.00;;
12271;SDS011;6198;51.446;6.698;2022-09-09T00:07:43;3.60;;;1.60;;
12271;SDS011;6198;51.446;6.698;2022-09-09T00:10:24;2.20;;;1.77;;
12271;SDS011;6198;51.446;6.698;2022-09-09T00:12:57;4.03;;;1.87;;
12271;SDS011;6198;51.446;6.698;2022-09-09T00:18:05;5.87;;;2.00;;
12271;SDS011;6198;51.446;6.698;2022-09-09T00:28:25;6.13;;;2.17;;
12271;SDS011;6198;51.446;6.698;2022-09-09T00:30:51;2.97;;;1.77;;
12271;SDS011;6198;51.446;6.698;2022-09-09T00:33:19;4.67;;;2.20;;
12271;SDS011;6198;51.446;6.698;2022-09-09T00:35:48;2.77;;;1.90;;
12271;SDS011;6198;51.446;6.698;2022-09-09T00:38:23;5.70;;;1.90;;
12271;SDS011;6198;51.446;6.698;2022-09-09T00:40:52;2.87;;;1.90;;
12271;SDS011;6198;51.446;6.698;2022-09-09T00:43:29;2.33;;;1.80;;
12271;SDS011;6198;51.446;6.698;2022-09-09T00:45:59;3.17;;;1.90;;
12271;SDS011;6198;51.446;6.698;2022-09-09T00:48:35;7.80;;;2.20;;
12271;SDS011;6198;51.446;6.698;2022-09-09T00:51:08;4.13;;;1.73;;
12271;SDS011;6198;51.446;6.698;2022-09-09T00:56:23;3.67;;;1.90;;
12271;SDS011;6198;51.446;6.698;2022-09-09T00:59:04;5.17;;;2.07;;
12271;SDS011;6198;51.446;6.698;2022-09-09T01:01:32;5.40;;;2.03;;
12271;SDS011;6198;51.446;6.698;2022-09-09T01:03:57;5.13;;;1.83;;
12271;SDS011;6198;51.446;6.698;2022-09-09T01:11:43;4.23;;;2.00;;
12271;SDS011;6198;51.446;6.698;2022-09-09T01:16:59;3.90;;;1.93;;
12271;SDS011;6198;51.446;6.698;2022-09-09T01:19:33;3.23;;;2.07;;
12271;SDS011;6198;51.446;6.698;2022-09-09T01:22:08;3.70;;;2.40;;
12271;SDS011;6198;51.446;6.698;2022-09-09T01:25:07;9.90;;;4.00;;
12271;SDS011;6198;51.446;6.698;2022-09-09T01:27:21;4.30;;;3.77;;
12271;SDS011;6198;51.446;6.698;2022-09-09T01:29:47;6.83;;;5.50;;
12271;SDS011;6198;51.446;6.698;2022-09-09T01:34:58;8.13;;;5.77;;
12271;SDS011;6198;51.446;6.698;2022-09-09T01:37:24;9.53;;;8.53;;
12271;SDS011;6198;51.446;6.698;2022-09-09T01:39:50;11.43;;;8.87;;
12271;SDS011;6198;51.446;6.698;2022-09-09T01:42:16;13.20;;;9.97;;
12271;SDS011;6198;51.446;6.698;2022-09-09T01:44:43;13.97;;;11.27;;
12271;SDS011;6198;51.446;6.698;2022-09-09T01:47:09;13.47;;;11.30;;
12271;SDS011;6198;51.446;6.698;2022-09-09T01:49:35;14.63;;;12.23;;
12271;SDS011;6198;51.446;6.698;2022-09-09T01:52:01;16.00;;;13.83;;
12271;SDS011;6198;51.446;6.698;2022-09-09T01:54:29;17.03;;;13.63;;
12271;SDS011;6198;51.446;6.698;2022-09-09T01:57:01;14.70;;;11.40;;
12271;SDS011;6198;51.446;6.698;2022-09-09T01:59:38;13.43;;;10.50;;
12271;SDS011;6198;51.446;6.698;2022-09-09T02:02:08;12.20;;;7.97;;
12271;SDS011;6198;51.446;6.698;2022-09-09T02:04:39;8.40;;;5.97;;
12271;SDS011;6198;51.446;6.698;2022-09-09T02:07:09;7.33;;;4.43;;
12271;SDS011;6198;51.446;6.698;2022-09-09T02:09:37;6.23;;;4.10;;
12271;SDS011;6198;51.446;6.698;2022-09-09T02:12:11;5.93;;;3.50;;
12271;SDS011;6198;51.446;6.698;2022-09-09T02:14:40;7.10;;;3.40;;
12271;SDS011;6198;51.446;6.698;2022-09-09T02:17:08;5.43;;;3.47;;
12271;SDS011;6198;51.446;6.698;2022-09-09T02:19:36;8.90;;;3.07;;
12271;SDS011;6198;51.446;6.698;2022-09-09T02:22:03;5.70;;;3.30;;
12271;SDS011;6198;51.446;6.698;2022-09-09T02:24:30;9.10;;;3.67;;
12271;SDS011;6198;51.446;6.698;2022-09-09T02:26:57;3.67;;;2.87;;
12271;SDS011;6198;51.446;6.698;2022-09-09T02:29:27;7.60;;;3.40;;
12271;SDS011;6198;51.446;6.698;2022-09-09T02:31:54;6.00;;;3.30;;
12271;SDS011;6198;51.446;6.698;2022-09-09T02:34:21;6.37;;;3.17;;
12271;SDS011;6198;51.446;6.698;2022-09-09T02:36:49;5.93;;;2.80;;
12271;SDS011;6198;51.446;6.698;2022-09-09T02:39:16;6.00;;;3.10;;
12271;SDS011;6198;51.446;6.698;2022-09-09T02:41:42;4.77;;;3.00;;
12271;SDS011;6198;51.446;6.698;2022-09-09T02:44:09;10.83;;;3.30;;
12271;SDS011;6198;51.446;6.698;2022-09-09T02:46:49;7.20;;;3.63;;
12271;SDS011;6198;51.446;6.698;2022-09-09T02:49:28;5.67;;;2.73;;
12271;SDS011;6198;51.446;6.698;2022-09-09T02:54:30;5.13;;;2.90;;
12271;SDS011;6198;51.446;6.698;2022-09-09T02:56:58;6.97;;;2.63;;
12271;SDS011;6198;51.446;6.698;2022-09-09T02:59:27;6.47;;;2.47;;
12271;SDS011;6198;51.446;6.698;2022-09-09T03:01:54;5.03;;;2.70;;
12271;SDS011;6198;51.446;6.698;2022-09-09T03:04:20;5.33;;;2.60;;
12271;SDS011;6198;51.446;6.698;2022-09-09T03:06:46;8.77;;;2.80;;
12271;SDS011;6198;51.446;6.698;2022-09-09T03:09:12;6.20;;;3.20;;
12271;SDS011;6198;51.446;6.698;2022-09-09T03:11:38;8.53;;;3.17;;
12271;SDS011;6198;51.446;6.698;2022-09-09T03:14:04;6.47;;;3.00;;
12271;SDS011;6198;51.446;6.698;2022-09-09T03:16:30;8.13;;;3.00;;
12271;SDS011;6198;51.446;6.698;2022-09-09T03:18:57;7.20;;;3.20;;
12271;SDS011;6198;51.446;6.698;2022-09-09T03:21:23;8.93;;;3.10;;
12271;SDS011;6198;51.446;6.698;2022-09-09T03:23:49;7.20;;;3.00;;
12271;SDS011;6198;51.446;6.698;2022-09-09T03:26:15;7.33;;;3.43;;
12271;SDS011;6198;51.446;6.698;2022-09-09T03:28:42;7.30;;;3.23;;
12271;SDS011;6198;51.446;6.698;2022-09-09T03:31:08;5.27;;;2.77;;
12271;SDS011;6198;51.446;6.698;2022-09-09T03:33:35;5.53;;;2.67;;
12271;SDS011;6198;51.446;6.698;2022-09-09T03:36:02;6.27;;;2.90;;
12271;SDS011;6198;51.446;6.698;2022-09-09T03:38:28;6.07;;;2.97;;
12271;SDS011;6198;51.446;6.698;2022-09-09T03:40:54;7.53;;;2.90;;
12271;SDS011;6198;51.446;6.698;2022-09-09T03:43:22;6.03;;;2.70;;
12271;SDS011;6198;51.446;6.698;2022-09-09T03:45:48;5.27;;;2.33;;
12271;SDS011;6198;51.446;6.698;2022-09-09T03:48:15;7.83;;;2.87;;
12271;SDS011;6198;51.446;6.698;2022-09-09T03:50:49;6.47;;;2.30;;
12271;SDS011;6198;51.446;6.698;2022-09-09T03:53:15;7.73;;;2.97;;
12271;SDS011;6198;51.446;6.698;2022-09-09T03:55:49;9.63;;;2.93;;
12271;SDS011;6198;51.446;6.698;2022-09-09T03:58:16;6.97;;;2.60;;
12271;SDS011;6198;51.446;6.698;2022-09-09T04:00:58;9.30;;;2.70;;
12271;SDS011;6198;51.446;6.698;2022-09-09T04:03:24;6.27;;;2.60;;
12271;SDS011;6198;51.446;6.698;2022-09-09T04:05:51;6.17;;;2.10;;
12271;SDS011;6198;51.446;6.698;2022-09-09T04:08:18;5.17;;;2.67;;
12271;SDS011;6198;51.446;6.698;2022-09-09T04:10:44;4.60;;;2.60;;
12271;SDS011;6198;51.446;6.698;2022-09-09T04:13:11;5.27;;;2.50;;
12271;SDS011;6198;51.446;6.698;2022-09-09T04:15:41;8.67;;;2.60;;
12271;SDS011;6198;51.446;6.698;2022-09-09T04:18:07;3.40;;;2.30;;
12271;SDS011;6198;51.446;6.698;2022-09-09T04:20:33;4.07;;;2.30;;
12271;SDS011;6198;51.446;6.698;2022-09-09T04:22:59;8.17;;;2.70;;
12271;SDS011;6198;51.446;6.698;2022-09-09T04:25:25;11.43;;;2.37;;
12271;SDS011;6198;51.446;6.698;2022-09-09T04:27:54;8.73;;;2.73;;
12271;SDS011;6198;51.446;6.698;2022-09-09T04:30:21;6.23;;;2.70;;
12271;SDS011;6198;51.446;6.698;2022-09-09T04:32:47;11.33;;;2.80;;
12271;SDS011;6198;51.446;6.698;2022-09-09T04:35:13;7.03;;;2.37;;
12271;SDS011;6198;51.446;6.698;2022-09-09T04:37:39;6.63;;;2.50;;
12271;SDS011;6198;51.446;6.698;2022-09-09T04:40:05;6.70;;;2.87;;
12271;SDS011;6198;51.446;6.698;2022-09-09T04:42:35;5.40;;;2.40;;
12271;SDS011;6198;51.446;6.698;2022-09-09T04:45:01;7.07;;;2.50;;
12271;SDS011;6198;51.446;6.698;2022-09-09T04:47:27;8.27;;;3.03;;
12271;SDS011;6198;51.446;6.698;2022-09-09T04:49:53;7.90;;;3.13;;
12271;SDS011;6198;51.446;6.698;2022-09-09T04:52:19;9.17;;;3.20;;
12271;SDS011;6198;51.446;6.698;2022-09-09T04:54:45;8.30;;;3.03;;
12271;SDS011;6198;51.446;6.698;2022-09-09T04:57:11;5.00;;;2.77;;
12271;SDS011;6198;51.446;6.698;2022-09-09T04:59:38;8.60;;;2.63;;
12271;SDS011;6198;51.446;6.698;2022-09-09T05:02:04;10.13;;;3.30;;
12271;SDS011;6198;51.446;6.698;2022-09-09T05:04:30;9.63;;;3.30;;
12271;SDS011;6198;51.446;6.698;2022-09-09T05:06:56;10.33;;;3.33;;
12271;SDS011;6198;51.446;6.698;2022-09-09T05:09:22;8.03;;;3.10;;
12271;SDS011;6198;51.446;6.698;2022-09-09T05:11:48;7.53;;;3.63;;
12271;SDS011;6198;51.446;6.698;2022-09-09T05:14:14;8.20;;;3.47;;
12271;SDS011;6198;51.446;6.698;2022-09-09T05:16:41;10.10;;;3.40;;
12271;SDS011;6198;51.446;6.698;2022-09-09T05:19:08;6.53;;;2.40;;
12271;SDS011;6198;51.446;6.698;2022-09-09T05:21:34;10.77;;;3.27;;
12271;SDS011;6198;51.446;6.698;2022-09-09T05:24:00;8.40;;;2.90;;
12271;SDS011;6198;51.446;6.698;2022-09-09T05:26:26;7.97;;;2.83;;
12271;SDS011;6198;51.446;6.698;2022-09-09T05:28:54;7.63;;;2.90;;
12271;SDS011;6198;51.446;6.698;2022-09-09T05:31:20;13.23;;;3.63;;
12271;SDS011;6198;51.446;6.698;2022-09-09T05:33:46;11.03;;;3.50;;
12271;SDS011;6198;51.446;6.698;2022-09-09T05:36:13;12.67;;;3.17;;
12271;SDS011;6198;51.446;6.698;2022-09-09T05:38:40;13.83;;;3.63;;
12271;SDS011;6198;51.446;6.698;2022-09-09T05:41:06;10.53;;;3.53;;
12271;SDS011;6198;51.446;6.698;2022-09-09T05:43:32;10.50;;;3.30;;
12271;SDS011;6198;51.446;6.698;2022-09-09T05:46:10;12.30;;;3.30;;
12271;SDS011;6198;51.446;6.698;2022-09-09T05:48:37;10.70;;;3.07;;
12271;SDS011;6198;51.446;6.698;2022-09-09T05:51:04;14.47;;;3.60;;
12271;SDS011;6198;51.446;6.698;2022-09-09T05:53:31;12.80;;;3.40;;
12271;SDS011;6198;51.446;6.698;2022-09-09T05:56:00;15.90;;;3.80;;
12271;SDS011;6198;51.446;6.698;2022-09-09T05:58:28;10.83;;;3.17;;
12271;SDS011;6198;51.446;6.698;2022-09-09T06:00:59;12.73;;;4.00;;
12271;SDS011;6198;51.446;6.698;2022-09-09T06:03:26;4.07;;;2.83;;
12271;SDS011;6198;51.446;6.698;2022-09-09T06:05:58;7.53;;;2.97;;
12271;SDS011;6198;51.446;6.698;2022-09-09T06:08:24;10.13;;;3.97;;
12271;SDS011;6198;51.446;6.698;2022-09-09T06:10:50;9.67;;;3.57;;
12271;SDS011;6198;51.446;6.698;2022-09-09T06:13:17;9.23;;;3.30;;
12271;SDS011;6198;51.446;6.698;2022-09-09T06:15:52;11.77;;;3.20;;
12271;SDS011;6198;51.446;6.698;2022-09-09T06:18:18;8.43;;;2.90;;
12271;SDS011;6198;51.446;6.698;2022-09-09T06:20:57;9.63;;;3.30;;
12271;SDS011;6198;51.446;6.698;2022-09-09T06:23:25;9.67;;;3.37;;
12271;SDS011;6198;51.446;6.698;2022-09-09T06:25:51;7.23;;;2.80;;
12271;SDS011;6198;51.446;6.698;2022-09-09T06:28:18;10.53;;;3.10;;
12271;SDS011;6198;51.446;6.698;2022-09-09T06:30:44;7.87;;;3.43;;
12271;SDS011;6198;51.446;6.698;2022-09-09T06:33:10;12.93;;;2.97;;
12271;SDS011;6198;51.446;6.698;2022-09-09T06:35:36;9.07;;;2.90;;
12271;SDS011;6198;51.446;6.698;2022-09-09T06:38:02;9.03;;;2.70;;
12271;SDS011;6198;51.446;6.698;2022-09-09T06:40:28;7.30;;;2.80;;
12271;SDS011;6198;51.446;6.698;2022-09-09T06:42:55;10.27;;;2.80;;
12271;SDS011;6198;51.446;6.698;2022-09-09T06:45:24;10.60;;;2.90;;
12271;SDS011;6198;51.446;6.698;2022-09-09T06:47:50;12.60;;;2.70;;
12271;SDS011;6198;51.446;6.698;2022-09-09T06:50:17;10.20;;;3.13;;
12271;SDS011;6198;51.446;6.698;2022-09-09T06:52:45;11.57;;;2.83;;
12271;SDS011;6198;51.446;6.698;2022-09-09T06:55:12;7.47;;;3.03;;
12271;SDS011;6198;51.446;6.698;2022-09-09T06:57:40;5.67;;;2.30;;
12271;SDS011;6198;51.446;6.698;2022-09-09T07:00:06;6.67;;;2.37;;
12271;SDS011;6198;51.446;6.698;2022-09-09T07:02:33;8.43;;;2.33;;
12271;SDS011;6198;51.446;6.698;2022-09-09T07:05:03;13.37;;;3.30;;
12271;SDS011;6198;51.446;6.698;2022-09-09T07:07:29;4.03;;;2.23;;
12271;SDS011;6198;51.446;6.698;2022-09-09T07:09:56;5.30;;;2.50;;
12271;SDS011;6198;51.446;6.698;2022-09-09T07:12:21;11.00;;;2.60;;
12271;SDS011;6198;51.446;6.698;2022-09-09T07:14:47;6.73;;;2.40;;
12271;SDS011;6198;51.446;6.698;2022-09-09T07:17:14;6.70;;;2.27;;
12271;SDS011;6198;51.446;6.698;2022-09-09T07:19:40;9.63;;;2.93;;
12271;SDS011;6198;51.446;6.698;2022-09-09T07:22:06;11.10;;;2.80;;
12271;SDS011;6198;51.446;6.698;2022-09-09T07:24:32;4.73;;;2.00;;
12271;SDS011;6198;51.446;6.698;2022-09-09T07:26:58;5.97;;;2.10;;
12271;SDS011;6198;51.446;6.698;2022-09-09T07:29:24;11.30;;;3.60;;
12271;SDS011;6198;51.446;6.698;2022-09-09T07:31:50;8.47;;;2.53;;
12271;SDS011;6198;51.446;6.698;2022-09-09T07:34:16;7.93;;;2.70;;
12271;SDS011;6198;51.446;6.698;2022-09-09T07:36:43;6.80;;;2.40;;
12271;SDS011;6198;51.446;6.698;2022-09-09T07:39:10;7.73;;;2.37;;
12271;SDS011;6198;51.446;6.698;2022-09-09T07:41:41;8.43;;;2.47;;
12271;SDS011;6198;51.446;6.698;2022-09-09T07:44:08;7.23;;;1.93;;
12271;SDS011;6198;51.446;6.698;2022-09-09T07:46:36;5.53;;;2.03;;
12271;SDS011;6198;51.446;6.698;2022-09-09T07:49:04;7.97;;;2.37;;
12271;SDS011;6198;51.446;6.698;2022-09-09T07:51:31;9.27;;;2.73;;
12271;SDS011;6198;51.446;6.698;2022-09-09T07:53:58;6.93;;;2.07;;
12271;SDS011;6198;51.446;6.698;2022-09-09T07:56:25;5.50;;;2.20;;
12271;SDS011;6198;51.446;6.698;2022-09-09T07:58:52;7.93;;;1.97;;
12271;SDS011;6198;51.446;6.698;2022-09-09T08:01:23;8.20;;;2.83;;
12271;SDS011;6198;51.446;6.698;2022-09-09T08:03:53;10.03;;;2.10;;
12271;SDS011;6198;51.446;6.698;2022-09-09T08:06:20;7.10;;;2.27;;
12271;SDS011;6198;51.446;6.698;2022-09-09T08:08:49;5.20;;;2.10;;
12271;SDS011;6198;51.446;6.698;2022-09-09T08:11:15;7.67;;;2.27;;
12271;SDS011;6198;51.446;6.698;2022-09-09T08:13:42;6.23;;;2.20;;
12271;SDS011;6198;51.446;6.698;2022-09-09T08:18:34;6.30;;;2.40;;
12271;SDS011;6198;51.446;6.698;2022-09-09T08:21:08;5.60;;;2.13;;
12271;SDS011;6198;51.446;6.698;2022-09-09T08:23:36;5.73;;;2.37;;
12271;SDS011;6198;51.446;6.698;2022-09-09T08:26:04;6.17;;;2.10;;
12271;SDS011;6198;51.446;6.698;2022-09-09T08:28:30;7.17;;;2.00;;
12271;SDS011;6198;51.446;6.698;2022-09-09T08:30:56;7.17;;;2.20;;
12271;SDS011;6198;51.446;6.698;2022-09-09T08:33:22;8.73;;;2.23;;
12271;SDS011;6198;51.446;6.698;2022-09-09T08:35:51;6.73;;;2.53;;
12271;SDS011;6198;51.446;6.698;2022-09-09T08:38:17;8.33;;;2.77;;
12271;SDS011;6198;51.446;6.698;2022-09-09T08:40:43;7.27;;;2.10;;
12271;SDS011;6198;51.446;6.698;2022-09-09T08:43:14;7.97;;;2.13;;
12271;SDS011;6198;51.446;6.698;2022-09-09T08:46:03;7.33;;;2.20;;
12271;SDS011;6198;51.446;6.698;2022-09-09T08:48:46;10.13;;;1.93;;
12271;SDS011;6198;51.446;6.698;2022-09-09T08:51:14;5.43;;;2.27;;
12271;SDS011;6198;51.446;6.698;2022-09-09T08:53:42;5.40;;;2.17;;
12271;SDS011;6198;51.446;6.698;2022-09-09T08:56:11;7.13;;;2.20;;
12271;SDS011;6198;51.446;6.698;2022-09-09T08:58:42;5.53;;;2.40;;
12271;SDS011;6198;51.446;6.698;2022-09-09T09:08:50;6.67;;;2.10;;
12271;SDS011;6198;51.446;6.698;2022-09-09T09:11:19;5.20;;;1.90;;
12271;SDS011;6198;51.446;6.698;2022-09-09T09:13:51;6.37;;;2.20;;
12271;SDS011;6198;51.446;6.698;2022-09-09T09:18:47;9.20;;;2.10;;
12271;SDS011;6198;51.446;6.698;2022-09-09T09:21:15;5.73;;;2.00;;
12271;SDS011;6198;51.446;6.698;2022-09-09T09:23:45;7.80;;;2.20;;
12271;SDS011;6198;51.446;6.698;2022-09-09T09:26:13;3.73;;;1.73;;
12271;SDS011;6198;51.446;6.698;2022-09-09T09:28:40;4.87;;;1.97;;
12271;SDS011;6198;51.446;6.698;2022-09-09T09:31:07;5.63;;;2.30;;
12271;SDS011;6198;51.446;6.698;2022-09-09T09:33:49;6.60;;;2.10;;
12271;SDS011;6198;51.446;6.698;2022-09-09T09:36:18;6.27;;;2.27;;
12271;SDS011;6198;51.446;6.698;2022-09-09T09:38:57;8.07;;;2.13;;
12271;SDS011;6198;51.446;6.698;2022-09-09T09:41:35;8.17;;;1.80;;
12271;SDS011;6198;51.446;6.698;2022-09-09T09:44:01;8.03;;;1.87;;
12271;SDS011;6198;51.446;6.698;2022-09-09T09:46:29;5.80;;;1.90;;
12271;SDS011;6198;51.446;6.698;2022-09-09T09:48:59;7.07;;;1.90;;
12271;SDS011;6198;51.446;6.698;2022-09-09T09:51:25;5.37;;;2.07;;
12271;SDS011;6198;51.446;6.698;2022-09-09T09:53:52;9.43;;;2.13;;
12271;SDS011;6198;51.446;6.698;2022-09-09T09:56:25;8.93;;;1.90;;
12271;SDS011;6198;51.446;6.698;2022-09-09T09:58:53;5.00;;;1.90;;
12271;SDS011;6198;51.446;6.698;2022-09-09T10:01:21;5.27;;;1.70;;
12271;SDS011;6198;51.446;6.698;2022-09-09T10:03:53;2.70;;;1.73;;
12271;SDS011;6198;51.446;6.698;2022-09-09T10:06:29;10.80;;;1.97;;
12271;SDS011;6198;51.446;6.698;2022-09-09T10:08:55;9.20;;;1.90;;
12271;SDS011;6198;51.446;6.698;2022-09-09T10:14:21;7.33;;;2.10;;
12271;SDS011;6198;51.446;6.698;2022-09-09T10:19:29;9.60;;;2.07;;
12271;SDS011;6198;51.446;6.698;2022-09-09T10:30:09;8.83;;;2.23;;
12271;SDS011;6198;51.446;6.698;2022-09-09T10:32:39;6.27;;;1.77;;
12271;SDS011;6198;51.446;6.698;2022-09-09T10:35:10;4.97;;;1.57;;
12271;SDS011;6198;51.446;6.698;2022-09-09T10:37:45;4.13;;;1.63;;
12271;SDS011;6198;51.446;6.698;2022-09-09T10:42:43;6.57;;;1.90;;
12271;SDS011;6198;51.446;6.698;2022-09-09T10:45:17;4.67;;;1.80;;
12271;SDS011;6198;51.446;6.698;2022-09-09T10:50:29;3.00;;;1.60;;
12271;SDS011;6198;51.446;6.698;2022-09-09T10:55:48;4.57;;;1.50;;
12271;SDS011;6198;51.446;6.698;2022-09-09T10:58:27;5.77;;;1.70;;
12271;SDS011;6198;51.446;6.698;2022-09-09T11:00:55;3.57;;;1.67;;
12271;SDS011;6198;51.446;6.698;2022-09-09T11:03:24;6.60;;;1.80;;
12271;SDS011;6198;51.446;6.698;2022-09-09T11:05:52;5.43;;;1.67;;
12271;SDS011;6198;51.446;6.698;2022-09-09T11:08:32;7.90;;;2.20;;
12271;SDS011;6198;51.446;6.698;2022-09-09T11:11:02;4.67;;;1.70;;
12271;SDS011;6198;51.446;6.698;2022-09-09T11:15:58;3.67;;;1.73;;
12271;SDS011;6198;51.446;6.698;2022-09-09T11:18:25;3.30;;;1.70;;
12271;SDS011;6198;51.446;6.698;2022-09-09T11:20:56;4.37;;;1.83;;
12271;SDS011;6198;51.446;6.698;2022-09-09T11:23:26;5.40;;;1.70;;
12271;SDS011;6198;51.446;6.698;2022-09-09T11:25:56;3.90;;;1.70;;
12271;SDS011;6198;51.446;6.698;2022-09-09T11:31:04;3.87;;;1.60;;
12271;SDS011;6198;51.446;6.698;2022-09-09T11:38:45;3.73;;;1.60;;
12271;SDS011;6198;51.446;6.698;2022-09-09T11:41:11;2.63;;;1.70;;
12271;SDS011;6198;51.446;6.698;2022-09-09T11:46:04;4.17;;;1.60;;
12271;SDS011;6198;51.446;6.698;2022-09-09T11:48:36;3.43;;;1.30;;
12271;SDS011;6198;51.446;6.698;2022-09-09T11:51:07;4.17;;;1.90;;
12271;SDS011;6198;51.446;6.698;2022-09-09T11:56:32;4.47;;;1.60;;
12271;SDS011;6198;51.446;6.698;2022-09-09T11:59:00;6.13;;;1.83;;
12271;SDS011;6198;51.446;6.698;2022-09-09T12:01:29;1.87;;;1.40;;
12271;SDS011;6198;51.446;6.698;2022-09-09T12:04:01;4.13;;;1.50;;
12271;SDS011;6198;51.446;6.698;2022-09-09T12:06:31;1.83;;;1.20;;
12271;SDS011;6198;51.446;6.698;2022-09-09T12:09:08;4.20;;;1.20;;
12271;SDS011;6198;51.446;6.698;2022-09-09T12:11:35;2.60;;;1.27;;
12271;SDS011;6198;51.446;6.698;2022-09-09T12:14:02;1.90;;;1.20;;
12271;SDS011;6198;51.446;6.698;2022-09-09T12:16:35;4.90;;;1.27;;
12271;SDS011;6198;51.446;6.698;2022-09-09T12:19:13;2.57;;;1.30;;
12271;SDS011;6198;51.446;6.698;2022-09-09T12:24:10;3.93;;;1.53;;
12271;SDS011;6198;51.446;6.698;2022-09-09T12:26:37;3.57;;;1.33;;
12271;SDS011;6198;51.446;6.698;2022-09-09T12:31:54;5.57;;;1.63;;
12271;SDS011;6198;51.446;6.698;2022-09-09T12:34:29;2.70;;;1.30;;
12271;SDS011;6198;51.446;6.698;2022-09-09T12:36:58;2.07;;;1.30;;
12271;SDS011;6198;51.446;6.698;2022-09-09T12:41:53;2.40;;;1.50;;
12271;SDS011;6198;51.446;6.698;2022-09-09T12:44:22;4.30;;;1.40;;
12271;SDS011;6198;51.446;6.698;2022-09-09T12:46:49;5.13;;;1.93;;
12271;SDS011;6198;51.446;6.698;2022-09-09T12:49:34;5.10;;;1.77;;
12271;SDS011;6198;51.446;6.698;2022-09-09T12:52:06;3.53;;;1.70;;
12271;SDS011;6198;51.446;6.698;2022-09-09T12:54:34;3.07;;;1.40;;
12271;SDS011;6198;51.446;6.698;2022-09-09T12:57:01;1.90;;;1.30;;
12271;SDS011;6198;51.446;6.698;2022-09-09T12:59:34;4.10;;;1.50;;
12271;SDS011;6198;51.446;6.698;2022-09-09T13:02:00;5.67;;;1.80;;
12271;SDS011;6198;51.446;6.698;2022-09-09T13:04:27;4.33;;;1.93;;
12271;SDS011;6198;51.446;6.698;2022-09-09T13:06:53;4.17;;;1.80;;
12271;SDS011;6198;51.446;6.698;2022-09-09T13:09:20;3.47;;;1.63;;
12271;SDS011;6198;51.446;6.698;2022-09-09T13:11:50;4.33;;;1.70;;
12271;SDS011;6198;51.446;6.698;2022-09-09T13:14:19;3.87;;;1.50;;
12271;SDS011;6198;51.446;6.698;2022-09-09T13:16:57;2.60;;;1.50;;
12271;SDS011;6198;51.446;6.698;2022-09-09T13:19:24;2.53;;;1.53;;
12271;SDS011;6198;51.446;6.698;2022-09-09T13:21:53;2.93;;;1.20;;
12271;SDS011;6198;51.446;6.698;2022-09-09T13:24:28;3.60;;;1.30;;
12271;SDS011;6198;51.446;6.698;2022-09-09T13:26:55;3.23;;;1.50;;
12271;SDS011;6198;51.446;6.698;2022-09-09T13:29:21;3.57;;;1.50;;
12271;SDS011;6198;51.446;6.698;2022-09-09T13:31:48;3.13;;;1.60;;
12271;SDS011;6198;51.446;6.698;2022-09-09T13:34:30;1.70;;;1.50;;
12271;SDS011;6198;51.446;6.698;2022-09-09T13:36:59;6.77;;;1.80;;
12271;SDS011;6198;51.446;6.698;2022-09-09T13:39:27;4.20;;;1.60;;
12271;SDS011;6198;51.446;6.698;2022-09-09T13:41:53;4.00;;;2.00;;
12271;SDS011;6198;51.446;6.698;2022-09-09T13:44:27;6.03;;;1.70;;
12271;SDS011;6198;51.446;6.698;2022-09-09T13:49:27;3.03;;;1.57;;
12271;SDS011;6198;51.446;6.698;2022-09-09T13:52:02;4.87;;;1.70;;
12271;SDS011;6198;51.446;6.698;2022-09-09T13:54:29;1.90;;;1.40;;
12271;SDS011;6198;51.446;6.698;2022-09-09T13:56:55;2.57;;;1.40;;
12271;SDS011;6198;51.446;6.698;2022-09-09T13:59:21;3.33;;;1.77;;
12271;SDS011;6198;51.446;6.698;2022-09-09T14:01:49;3.87;;;1.47;;
12271;SDS011;6198;51.446;6.698;2022-09-09T14:04:17;2.97;;;1.57;;
12271;SDS011;6198;51.446;6.698;2022-09-09T14:06:43;4.33;;;1.67;;
12271;SDS011;6198;51.446;6.698;2022-09-09T14:09:14;5.40;;;1.60;;
12271;SDS011;6198;51.446;6.698;2022-09-09T14:11:40;3.00;;;1.63;;
12271;SDS011;6198;51.446;6.698;2022-09-09T14:14:06;4.77;;;2.00;;
12271;SDS011;6198;51.446;6.698;2022-09-09T14:16:32;3.97;;;1.83;;
12271;SDS011;6198;51.446;6.698;2022-09-09T14:18:58;3.53;;;1.70;;
12271;SDS011;6198;51.446;6.698;2022-09-09T14:21:24;3.20;;;1.77;;
12271;SDS011;6198;51.446;6.698;2022-09-09T14:23:50;3.73;;;1.60;;
12271;SDS011;6198;51.446;6.698;2022-09-09T14:26:17;3.40;;;1.70;;
12271;SDS011;6198;51.446;6.698;2022-09-09T14:28:45;5.43;;;2.10;;
12271;SDS011;6198;51.446;6.698;2022-09-09T14:31:11;3.87;;;1.83;;
12271;SDS011;6198;51.446;6.698;2022-09-09T14:33:38;3.50;;;1.20;;
12271;SDS011;6198;51.446;6.698;2022-09-09T14:36:04;1.80;;;1.00;;
12271;SDS011;6198;51.446;6.698;2022-09-09T14:38:34;2.13;;;1.00;;
12271;SDS011;6198;51.446;6.698;2022-09-09T14:41:04;2.10;;;0.90;;
12271;SDS011;6198;51.446;6.698;2022-09-09T14:43:30;1.60;;;1.10;;
12271;SDS011;6198;51.446;6.698;2022-09-09T14:45:57;1.57;;;0.80;;
12271;SDS011;6198;51.446;6.698;2022-09-09T14:48:23;2.17;;;0.97;;
12271;SDS011;6198;51.446;6.698;2022-09-09T14:50:49;2.33;;;1.17;;
12271;SDS011;6198;51.446;6.698;2022-09-09T14:53:16;1.67;;;1.00;;
12271;SDS011;6198;51.446;6.698;2022-09-09T14:55:42;3.03;;;0.80;;
12271;SDS011;6198;51.446;6.698;2022-09-09T14:58:08;1.50;;;1.00;;
12271;SDS011;6198;51.446;6.698;2022-09-09T15:00:33;2.90;;;0.97;;
12271;SDS011;6198;51.446;6.698;2022-09-09T15:03:00;4.40;;;1.10;;
12271;SDS011;6198;51.446;6.698;2022-09-09T15:05:26;2.83;;;1.20;;
12271;SDS011;6198;51.446;6.698;2022-09-09T15:07:53;3.53;;;1.10;;
12271;SDS011;6198;51.446;6.698;2022-09-09T15:10:19;4.03;;;1.47;;
12271;SDS011;6198;51.446;6.698;2022-09-09T15:12:45;6.30;;;1.70;;
12271;SDS011;6198;51.446;6.698;2022-09-09T15:15:11;2.43;;;1.10;;
12271;SDS011;6198;51.446;6.698;2022-09-09T15:17:37;4.27;;;1.30;;
12271;SDS011;6198;51.446;6.698;2022-09-09T15:20:03;1.90;;;1.30;;
12271;SDS011;6198;51.446;6.698;2022-09-09T15:22:30;2.73;;;1.67;;
12271;SDS011;6198;51.446;6.698;2022-09-09T15:24:56;2.10;;;1.53;;
12271;SDS011;6198;51.446;6.698;2022-09-09T15:27:22;2.40;;;1.70;;
12271;SDS011;6198;51.446;6.698;2022-09-09T15:29:48;3.97;;;1.50;;
12271;SDS011;6198;51.446;6.698;2022-09-09T15:32:15;4.47;;;1.33;;
12271;SDS011;6198;51.446;6.698;2022-09-09T15:34:41;1.83;;;1.30;;
12271;SDS011;6198;51.446;6.698;2022-09-09T15:37:09;3.53;;;1.67;;
12271;SDS011;6198;51.446;6.698;2022-09-09T15:39:36;4.30;;;1.60;;
12271;SDS011;6198;51.446;6.698;2022-09-09T15:42:02;3.30;;;1.80;;
12271;SDS011;6198;51.446;6.698;2022-09-09T15:44:28;3.43;;;1.90;;
12271;SDS011;6198;51.446;6.698;2022-09-09T15:46:53;3.23;;;1.53;;
12271;SDS011;6198;51.446;6.698;2022-09-09T15:49:20;3.20;;;1.60;;
12271;SDS011;6198;51.446;6.698;2022-09-09T15:51:51;3.83;;;1.90;;
12271;SDS011;6198;51.446;6.698;2022-09-09T15:54:18;3.73;;;2.20;;
12271;SDS011;6198;51.446;6.698;2022-09-09T15:56:46;4.17;;;2.17;;
12271;SDS011;6198;51.446;6.698;2022-09-09T15:59:13;7.20;;;1.97;;
12271;SDS011;6198;51.446;6.698;2022-09-09T16:01:40;7.40;;;2.13;;
12271;SDS011;6198;51.446;6.698;2022-09-09T16:04:07;7.50;;;2.30;;
12271;SDS011;6198;51.446;6.698;2022-09-09T16:06:33;5.37;;;1.80;;
12271;SDS011;6198;51.446;6.698;2022-09-09T16:08:59;4.97;;;1.77;;
12271;SDS011;6198;51.446;6.698;2022-09-09T16:11:27;4.27;;;1.90;;
12271;SDS011;6198;51.446;6.698;2022-09-09T16:13:55;4.33;;;2.20;;
12271;SDS011;6198;51.446;6.698;2022-09-09T16:16:22;8.10;;;2.80;;
12271;SDS011;6198;51.446;6.698;2022-09-09T16:18:53;5.37;;;1.90;;
12271;SDS011;6198;51.446;6.698;2022-09-09T16:21:20;4.30;;;2.37;;
12271;SDS011;6198;51.446;6.698;2022-09-09T16:23:47;4.03;;;2.37;;
12271;SDS011;6198;51.446;6.698;2022-09-09T16:26:15;4.17;;;2.23;;
12271;SDS011;6198;51.446;6.698;2022-09-09T16:28:41;3.63;;;1.90;;
12271;SDS011;6198;51.446;6.698;2022-09-09T16:31:07;2.50;;;1.63;;
12271;SDS011;6198;51.446;6.698;2022-09-09T16:33:35;6.30;;;1.80;;
12271;SDS011;6198;51.446;6.698;2022-09-09T16:36:11;3.07;;;1.70;;